createdAt,value
2023-07-18T00:01:33.236Z,100.00
2023-07-18T00:03:59.969Z,96.29
2023-07-18T00:06:26.571Z,99.96
2023-07-18T00:08:53.176Z,100.00
2023-07-18T00:11:21.655Z,100.00
2023-07-18T00:13:48.357Z,100.00
2023-07-18T00:16:14.928Z,100.00
2023-07-18T00:18:41.999Z,100.00
2023-07-18T00:21:08.734Z,100.00
2023-07-18T00:23:35.412Z,100.00
2023-07-18T00:26:01.959Z,100.00
2023-07-18T00:28:29.513Z,100.00
2023-07-18T00:30:56.233Z,100.00
2023-07-18T00:33:23.756Z,100.00
2023-07-18T00:35:50.480Z,100.00
2023-07-18T00:38:17.541Z,100.00
2023-07-18T00:40:44.152Z,100.00
2023-07-18T00:43:15.991Z,100.00
2023-07-18T00:45:46.338Z,100.00
2023-07-18T00:48:13.073Z,100.00
2023-07-18T00:50:39.763Z,100.00
2023-07-18T00:53:07.185Z,100.00
2023-07-18T00:55:33.994Z,100.00
2023-07-18T00:58:04.433Z,100.00
2023-07-18T01:00:31.092Z,100.00
2023-07-18T01:02:57.741Z,100.00
2023-07-18T01:05:24.579Z,100.00
2023-07-18T01:07:51.586Z,100.00
2023-07-18T01:10:26.387Z,100.00
2023-07-18T01:12:56.187Z,100.00
2023-07-18T01:15:25.097Z,100.00
2023-07-18T01:17:52.584Z,100.00
2023-07-18T01:20:27.997Z,100.00
2023-07-18T01:22:59.909Z,100.00
2023-07-18T01:25:27.721Z,100.00
2023-07-18T01:27:57.250Z,100.00
2023-07-18T01:30:27.224Z,100.00
2023-07-18T01:32:55.037Z,100.00
2023-07-18T01:35:26.079Z,100.00
2023-07-18T01:37:55.909Z,100.00
2023-07-18T01:40:23.962Z,100.00
2023-07-18T01:42:53.887Z,100.00
2023-07-18T01:45:22.560Z,100.00
2023-07-18T01:47:51.151Z,100.00
2023-07-18T01:50:19.358Z,100.00
2023-07-18T01:52:48.186Z,100.00
2023-07-18T01:55:15.884Z,100.00
2023-07-18T01:57:45.720Z,100.00
2023-07-18T02:00:19.823Z,100.00
2023-07-18T02:02:49.945Z,100.00
2023-07-18T02:05:25.217Z,100.00
2023-07-18T02:07:55.437Z,100.00
2023-07-18T02:10:22.838Z,100.00
2023-07-18T02:12:52.398Z,100.00
2023-07-18T02:15:20.778Z,100.00
2023-07-18T02:17:48.473Z,100.00
2023-07-18T02:20:15.653Z,100.00
2023-07-18T02:22:45.944Z,100.00
2023-07-18T02:25:16.225Z,100.00
2023-07-18T02:27:42.821Z,100.00
2023-07-18T02:30:12.634Z,100.00
2023-07-18T02:32:40.862Z,100.00
2023-07-18T02:35:09.943Z,100.00
2023-07-18T02:37:37.906Z,100.00
2023-07-18T02:40:10.280Z,100.00
2023-07-18T02:42:39.122Z,100.00
2023-07-18T02:45:08.010Z,100.00
2023-07-18T02:47:34.828Z,100.00
2023-07-18T02:50:01.636Z,100.00
2023-07-18T02:52:28.151Z,100.00
2023-07-18T02:54:54.956Z,100.00
2023-07-18T02:57:21.616Z,100.00
2023-07-18T02:59:48.207Z,100.00
2023-07-18T03:02:14.777Z,100.00
2023-07-18T03:04:41.353Z,100.00
2023-07-18T03:07:08.303Z,100.00
2023-07-18T03:09:36.235Z,100.00
2023-07-18T03:12:03.033Z,100.00
2023-07-18T03:14:30.373Z,100.00
2023-07-18T03:16:57.342Z,100.00
2023-07-18T03:19:24.370Z,100.00
2023-07-18T03:21:51.085Z,100.00
2023-07-18T03:24:18.916Z,100.00
2023-07-18T03:26:46.194Z,100.00
2023-07-18T03:29:12.852Z,100.00
2023-07-18T03:31:40.755Z,100.00
2023-07-18T03:34:07.839Z,100.00
2023-07-18T03:36:38.233Z,100.00
2023-07-18T03:39:05.275Z,100.00
2023-07-18T03:41:31.970Z,100.00
2023-07-18T03:43:58.794Z,100.00
2023-07-18T03:46:25.436Z,100.00
2023-07-18T03:48:52.824Z,100.00
2023-07-18T03:51:20.069Z,100.00
2023-07-18T03:53:48.224Z,100.00
2023-07-18T03:56:16.318Z,100.00
2023-07-18T03:58:43.990Z,100.00
2023-07-18T04:01:12.735Z,100.00
2023-07-18T04:03:40.357Z,100.00
2023-07-18T04:06:07.741Z,100.00
2023-07-18T04:08:34.592Z,100.00
2023-07-18T04:11:01.301Z,100.00
2023-07-18T04:13:28.119Z,100.00
2023-07-18T04:15:56.197Z,100.00
2023-07-18T04:18:23.517Z,100.00
2023-07-18T04:20:50.575Z,100.00
2023-07-18T04:23:18.387Z,100.00
2023-07-18T04:26:03.938Z,100.00
2023-07-18T04:28:34.034Z,100.00
2023-07-18T04:31:01.322Z,100.00
2023-07-18T04:33:28.940Z,100.00
2023-07-18T04:35:55.447Z,100.00
2023-07-18T04:38:21.955Z,100.00
2023-07-18T04:40:49.206Z,100.00
2023-07-18T04:43:16.050Z,100.00
2023-07-18T04:45:46.465Z,100.00
2023-07-18T04:48:15.331Z,100.00
2023-07-18T04:50:44.243Z,100.00
2023-07-18T04:53:11.676Z,100.00
2023-07-18T04:55:40.286Z,100.00
2023-07-18T04:58:09.086Z,100.00
2023-07-18T05:00:36.755Z,100.00
2023-07-18T05:03:04.017Z,100.00
2023-07-18T05:05:31.156Z,100.00
2023-07-18T05:08:00.211Z,100.00
2023-07-18T05:10:27.097Z,100.00
2023-07-18T05:12:56.607Z,100.00
2023-07-18T05:15:24.780Z,100.00
2023-07-18T05:17:51.909Z,100.00
2023-07-18T05:20:19.877Z,100.00
2023-07-18T05:22:46.921Z,100.00
2023-07-18T05:25:16.226Z,100.00
2023-07-18T05:27:43.589Z,100.00
2023-07-18T05:30:20.585Z,100.00
2023-07-18T05:32:52.377Z,100.00
2023-07-18T05:35:18.942Z,100.00
2023-07-18T05:37:46.079Z,100.00
2023-07-18T05:40:13.465Z,100.00
2023-07-18T05:42:43.585Z,100.00
2023-07-18T05:45:10.673Z,100.00
2023-07-18T05:47:39.792Z,100.00
2023-07-18T05:50:08.053Z,100.00
2023-07-18T05:52:35.603Z,100.00
2023-07-18T05:55:05.156Z,100.00
2023-07-18T05:57:31.955Z,100.00
2023-07-18T05:59:58.558Z,100.00
2023-07-18T06:02:25.153Z,100.00
2023-07-18T06:04:52.040Z,100.00
2023-07-18T06:07:18.584Z,100.00
2023-07-18T06:09:45.211Z,100.00
2023-07-18T06:12:13.480Z,100.00
2023-07-18T06:14:40.395Z,100.00
2023-07-18T06:17:07.331Z,99.32
2023-07-18T06:19:34.050Z,99.99
2023-07-18T06:22:00.678Z,99.41
2023-07-18T06:24:27.305Z,97.96
2023-07-18T06:26:53.986Z,97.43
2023-07-18T06:29:21.749Z,96.55
2023-07-18T06:31:49.859Z,97.54
2023-07-18T06:34:18.447Z,93.42
2023-07-18T06:36:46.883Z,94.32
2023-07-18T06:39:15.054Z,87.22
2023-07-18T06:41:42.285Z,87.30
2023-07-18T06:44:10.163Z,89.14
2023-07-18T06:46:37.278Z,86.47
2023-07-18T06:49:04.216Z,79.86
2023-07-18T06:51:30.839Z,81.77
2023-07-18T06:53:57.387Z,75.14
2023-07-18T06:56:24.514Z,75.81
2023-07-18T06:58:51.278Z,73.76
2023-07-18T07:01:18.292Z,72.40
2023-07-18T07:03:45.291Z,67.35
2023-07-18T07:06:14.293Z,67.39
2023-07-18T07:08:40.963Z,65.90
2023-07-18T07:11:09.537Z,64.75
2023-07-18T07:13:37.586Z,65.31
2023-07-18T07:16:05.632Z,64.26
2023-07-18T07:18:32.700Z,62.25
2023-07-18T07:21:00.634Z,62.34
2023-07-18T07:23:27.466Z,59.19
2023-07-18T07:25:54.088Z,56.79
2023-07-18T07:28:20.836Z,57.44
2023-07-18T07:30:47.453Z,54.72
2023-07-18T07:33:14.144Z,55.14
2023-07-18T07:35:40.855Z,53.79
2023-07-18T07:38:07.997Z,52.13
2023-07-18T07:40:34.737Z,54.44
2023-07-18T07:43:01.316Z,52.18
2023-07-18T07:45:28.042Z,51.04
2023-07-18T07:47:54.738Z,50.28
2023-07-18T07:50:21.316Z,50.77
2023-07-18T07:52:47.947Z,49.13
2023-07-18T07:55:14.982Z,48.00
2023-07-18T07:57:42.311Z,48.33
2023-07-18T08:00:09.731Z,46.81
2023-07-18T08:02:36.293Z,45.92
2023-07-18T08:05:03.111Z,45.15
2023-07-18T08:07:30.181Z,44.46
2023-07-18T08:09:56.800Z,47.41
2023-07-18T08:12:23.386Z,46.21
2023-07-18T08:14:50.293Z,46.23
2023-07-18T08:17:18.236Z,45.10
2023-07-18T08:19:45.033Z,44.71
2023-07-18T08:22:11.764Z,43.54
2023-07-18T08:24:40.525Z,42.25
2023-07-18T08:27:07.990Z,43.59
2023-07-18T08:29:36.529Z,42.76
2023-07-18T08:32:04.433Z,44.75
2023-07-18T08:34:31.014Z,45.31
2023-07-18T08:36:57.590Z,44.42
2023-07-18T08:39:24.104Z,46.02
2023-07-18T08:41:51.202Z,45.32
2023-07-18T08:44:18.954Z,46.23
2023-07-18T08:46:47.887Z,44.61
2023-07-18T08:49:18.264Z,43.72
2023-07-18T08:51:46.858Z,44.14
2023-07-18T08:54:14.306Z,45.01
2023-07-18T08:56:43.921Z,45.25
2023-07-18T08:59:12.266Z,44.77
2023-07-18T09:01:48.940Z,45.66
2023-07-18T09:04:15.908Z,45.43
2023-07-18T09:06:50.755Z,44.85
2023-07-18T09:09:19.268Z,45.68
2023-07-18T09:12:05.684Z,42.88
2023-07-18T09:14:35.405Z,43.18
2023-07-18T09:17:06.092Z,40.52
2023-07-18T09:19:49.637Z,40.41
2023-07-18T09:22:18.335Z,40.11
2023-07-18T09:24:48.792Z,39.64
2023-07-18T09:27:19.507Z,35.41
2023-07-18T09:29:49.405Z,36.41
2023-07-18T09:32:19.251Z,35.78
2023-07-18T09:35:00.369Z,36.54
2023-07-18T09:37:28.289Z,36.93
2023-07-18T09:39:55.943Z,38.00
2023-07-18T09:42:25.532Z,37.01
2023-07-18T09:44:53.536Z,36.84
2023-07-18T09:47:21.336Z,38.53
2023-07-18T09:49:48.256Z,37.07
2023-07-18T09:52:17.241Z,36.71
2023-07-18T09:54:45.231Z,37.77
2023-07-18T09:57:14.111Z,38.71
2023-07-18T09:59:41.278Z,35.95
2023-07-18T10:02:12.141Z,37.14
2023-07-18T10:04:39.892Z,37.26
2023-07-18T10:07:10.532Z,38.93
2023-07-18T10:09:39.394Z,35.09
2023-07-18T10:12:08.620Z,36.04
2023-07-18T10:15:00.922Z,37.14
2023-07-18T10:17:36.335Z,36.75
2023-07-18T10:20:13.160Z,35.37
2023-07-18T10:22:58.585Z,36.65
2023-07-18T10:25:31.078Z,36.82
2023-07-18T10:28:01.039Z,35.91
2023-07-18T10:30:42.754Z,34.09
2023-07-18T10:33:09.999Z,37.50
2023-07-18T10:35:42.730Z,35.35
2023-07-18T10:38:09.549Z,34.90
2023-07-18T10:40:43.938Z,35.52
2023-07-18T10:43:18.013Z,35.16
2023-07-18T10:45:45.974Z,37.30
2023-07-18T10:48:17.554Z,35.42
2023-07-18T10:50:47.346Z,38.59
2023-07-18T10:53:20.159Z,37.08
2023-07-18T10:55:48.232Z,34.00
2023-07-18T10:58:19.806Z,35.97
2023-07-18T11:00:49.415Z,33.88
2023-07-18T11:03:21.106Z,35.31
2023-07-18T11:05:52.619Z,34.10
2023-07-18T11:08:29.750Z,33.22
2023-07-18T11:11:00.304Z,31.89
2023-07-18T11:13:30.272Z,31.80
2023-07-18T11:16:10.475Z,32.55
2023-07-18T11:18:43.406Z,32.79
2023-07-18T11:21:12.584Z,33.72
2023-07-18T11:23:41.668Z,31.62
2023-07-18T11:26:13.984Z,31.73
2023-07-18T11:28:44.756Z,30.12
2023-07-18T11:31:42.000Z,31.50
2023-07-18T11:34:10.342Z,29.79
2023-07-18T11:36:40.948Z,29.54
2023-07-18T11:39:23.437Z,30.42
2023-07-18T11:41:53.256Z,29.66
2023-07-18T11:44:27.890Z,30.95
2023-07-18T11:46:56.015Z,29.07
2023-07-18T11:49:38.754Z,31.57
2023-07-18T11:52:09.150Z,31.65
2023-07-18T11:54:36.866Z,29.77
2023-07-18T11:57:05.242Z,30.15
2023-07-18T11:59:32.457Z,30.55
2023-07-18T12:01:59.048Z,30.72
2023-07-18T12:04:25.593Z,30.02
2023-07-18T12:06:52.245Z,29.71
2023-07-18T12:09:18.824Z,31.30
2023-07-18T12:11:45.518Z,32.19
2023-07-18T12:14:12.236Z,30.57
2023-07-18T12:16:39.809Z,30.99
2023-07-18T12:19:06.702Z,31.64
2023-07-18T12:21:33.329Z,32.10
2023-07-18T12:23:59.831Z,31.48
2023-07-18T12:26:26.389Z,31.35
2023-07-18T12:28:55.220Z,29.95
2023-07-18T12:31:22.161Z,31.86
2023-07-18T12:33:48.921Z,30.11
2023-07-18T12:36:15.521Z,28.87
2023-07-18T12:38:42.049Z,30.36
2023-07-18T12:41:09.547Z,27.44
2023-07-18T12:43:36.123Z,27.22
2023-07-18T12:46:02.739Z,27.83
2023-07-18T12:48:29.230Z,27.56
2023-07-18T12:50:55.790Z,28.90
2023-07-18T12:53:22.276Z,29.56
2023-07-18T12:55:48.928Z,29.14
2023-07-18T12:58:15.458Z,29.42
2023-07-18T13:00:42.184Z,28.06
2023-07-18T13:03:08.939Z,29.13
2023-07-18T13:05:35.537Z,28.76
2023-07-18T13:08:02.080Z,28.09
2023-07-18T13:10:28.687Z,27.52
2023-07-18T13:12:55.282Z,28.13
2023-07-18T13:15:22.543Z,28.96
2023-07-18T13:17:49.515Z,29.11
2023-07-18T13:20:17.088Z,28.94
2023-07-18T13:22:43.840Z,28.07
2023-07-18T13:25:11.160Z,29.19
2023-07-18T13:27:39.799Z,27.54
2023-07-18T13:30:08.552Z,30.10
2023-07-18T13:32:35.171Z,27.78
2023-07-18T13:35:01.949Z,27.13
2023-07-18T13:37:28.518Z,26.90
2023-07-18T13:39:55.188Z,27.55
2023-07-18T13:42:21.757Z,28.03
2023-07-18T13:47:19.507Z,29.27
2023-07-18T13:52:15.552Z,28.85
2023-07-18T13:54:42.355Z,28.93
2023-07-18T13:57:08.903Z,28.53
2023-07-18T13:59:35.444Z,27.88
2023-07-18T14:02:02.041Z,28.83
2023-07-18T14:04:28.903Z,28.84
2023-07-18T14:06:55.480Z,28.48
2023-07-18T14:09:22.640Z,29.23
2023-07-18T14:11:49.432Z,29.62
2023-07-18T14:14:15.966Z,29.06
2023-07-18T14:16:42.495Z,29.14
2023-07-18T14:19:09.166Z,29.71
2023-07-18T14:21:35.782Z,29.95
2023-07-18T14:24:02.330Z,30.20
2023-07-18T14:26:28.921Z,29.64
2023-07-18T14:28:55.486Z,30.07
2023-07-18T14:31:22.263Z,31.79
2023-07-18T14:34:04.759Z,31.11
2023-07-18T14:36:32.603Z,32.03
2023-07-18T14:38:59.166Z,32.05
2023-07-18T14:41:25.690Z,31.14
2023-07-18T14:43:52.194Z,31.12
2023-07-18T14:46:19.105Z,30.33
2023-07-18T14:48:45.870Z,31.06
2023-07-18T14:51:12.476Z,31.93
2023-07-18T14:53:38.997Z,31.78
2023-07-18T14:56:05.540Z,31.65
2023-07-18T14:58:31.999Z,30.31
2023-07-18T15:00:58.666Z,31.88
2023-07-18T15:03:26.399Z,32.15
2023-07-18T15:05:53.032Z,32.07
2023-07-18T15:08:19.555Z,30.85
2023-07-18T15:10:46.320Z,32.11
2023-07-18T15:13:12.848Z,30.43
2023-07-18T15:15:41.147Z,32.13
2023-07-18T15:18:08.021Z,32.63
2023-07-18T15:20:34.554Z,31.79
2023-07-18T15:23:01.148Z,32.23
2023-07-18T15:25:32.214Z,33.85
2023-07-18T15:28:00.562Z,33.01
2023-07-18T15:30:28.547Z,34.05
2023-07-18T15:32:55.309Z,35.04
2023-07-18T15:35:22.106Z,32.42
2023-07-18T15:37:48.728Z,31.47
2023-07-18T15:40:15.234Z,30.84
2023-07-18T15:42:42.312Z,31.19
2023-07-18T15:45:09.728Z,32.01
2023-07-18T15:47:36.374Z,32.69
2023-07-18T15:50:03.089Z,34.12
2023-07-18T15:52:29.672Z,33.72
2023-07-18T15:54:56.327Z,32.89
2023-07-18T15:57:23.161Z,32.75
2023-07-18T15:59:49.886Z,32.64
2023-07-18T16:02:16.533Z,31.75
2023-07-18T16:04:43.193Z,31.93
2023-07-18T16:07:09.856Z,32.32
2023-07-18T16:09:56.664Z,32.65
2023-07-18T16:12:23.370Z,32.94
2023-07-18T16:14:50.258Z,33.09
2023-07-18T16:17:17.146Z,33.24
2023-07-18T16:19:45.640Z,34.59
2023-07-18T16:22:12.392Z,35.74
2023-07-18T16:24:40.639Z,35.95
2023-07-18T16:27:07.484Z,36.08
2023-07-18T16:29:34.330Z,36.66
2023-07-18T16:32:01.024Z,36.55
2023-07-18T16:34:27.645Z,36.45
2023-07-18T16:36:56.356Z,36.56
2023-07-18T16:39:22.920Z,37.98
2023-07-18T16:41:49.494Z,40.78
2023-07-18T16:44:16.415Z,41.66
2023-07-18T16:46:44.379Z,42.13
2023-07-18T16:49:10.976Z,40.75
2023-07-18T16:51:37.485Z,41.52
2023-07-18T16:54:04.223Z,40.94
2023-07-18T16:56:30.961Z,41.58
2023-07-18T16:58:57.716Z,40.67
2023-07-18T17:01:24.234Z,42.66
2023-07-18T17:03:50.987Z,42.45
2023-07-18T17:06:17.830Z,43.11
2023-07-18T17:08:44.669Z,41.46
2023-07-18T17:11:11.251Z,42.08
2023-07-18T17:13:38.163Z,43.61
2023-07-18T17:16:05.344Z,44.61
2023-07-18T17:18:31.869Z,44.06
2023-07-18T17:20:58.948Z,43.42
2023-07-18T17:23:25.532Z,43.00
2023-07-18T17:25:52.162Z,44.24
2023-07-18T17:28:18.671Z,45.38
2023-07-18T17:30:45.190Z,44.82
2023-07-18T17:33:12.098Z,45.07
2023-07-18T17:35:39.883Z,44.25
2023-07-18T17:38:06.838Z,44.62
2023-07-18T17:40:33.416Z,44.09
2023-07-18T17:43:05.349Z,44.22
2023-07-18T17:45:32.397Z,44.57
2023-07-18T17:47:59.656Z,43.75
2023-07-18T17:50:26.354Z,44.26
2023-07-18T17:52:52.919Z,45.68
2023-07-18T17:55:19.489Z,44.93
2023-07-18T17:57:46.047Z,46.86
2023-07-18T18:00:13.143Z,44.64
2023-07-18T18:02:40.030Z,44.95
2023-07-18T18:05:35.531Z,45.20
2023-07-18T18:08:06.013Z,44.29
2023-07-18T18:10:32.800Z,44.90
2023-07-18T18:12:59.398Z,45.92
2023-07-18T18:15:27.785Z,47.96
2023-07-18T18:17:55.429Z,47.13
2023-07-18T18:20:22.210Z,47.96
2023-07-18T18:22:48.735Z,49.26
2023-07-18T18:25:16.164Z,49.11
2023-07-18T18:27:43.961Z,48.05
2023-07-18T18:30:12.221Z,47.63
2023-07-18T18:32:38.902Z,49.53
2023-07-18T18:35:09.534Z,47.64
2023-07-18T18:37:39.486Z,48.60
2023-07-18T18:40:06.851Z,49.03
2023-07-18T18:42:34.695Z,48.70
2023-07-18T18:45:01.453Z,49.02
2023-07-18T18:47:28.098Z,48.14
2023-07-18T18:49:54.875Z,48.18
2023-07-18T18:52:21.509Z,49.18
2023-07-18T18:54:48.021Z,49.59
2023-07-18T18:57:15.374Z,49.26
2023-07-18T18:59:44.618Z,49.57
2023-07-18T19:02:14.764Z,49.43
2023-07-18T19:04:42.921Z,49.11
2023-07-18T19:07:09.516Z,49.53
2023-07-18T19:09:36.271Z,49.77
2023-07-18T19:12:03.040Z,50.34
2023-07-18T19:14:29.642Z,53.61
2023-07-18T19:16:56.317Z,51.36
2023-07-18T19:19:22.805Z,50.70
2023-07-18T19:21:49.325Z,50.98
2023-07-18T19:24:15.869Z,50.93
2023-07-18T19:26:42.623Z,50.90
2023-07-18T19:29:10.069Z,52.09
2023-07-18T19:31:36.584Z,52.86
2023-07-18T19:34:03.283Z,52.82
2023-07-18T19:36:29.892Z,52.69
2023-07-18T19:38:56.453Z,53.12
2023-07-18T19:41:24.324Z,52.74
2023-07-18T19:43:51.066Z,54.13
2023-07-18T19:46:17.748Z,54.64
2023-07-18T19:48:44.308Z,55.40
2023-07-18T19:51:10.843Z,55.78
2023-07-18T19:53:37.741Z,57.70
2023-07-18T19:56:04.599Z,57.54
2023-07-18T19:58:31.199Z,58.91
2023-07-18T20:00:58.239Z,60.02
2023-07-18T20:03:24.935Z,59.10
2023-07-18T20:05:51.710Z,59.24
2023-07-18T20:08:18.426Z,59.82
2023-07-18T20:10:45.066Z,59.68
2023-07-18T20:13:11.613Z,60.51
2023-07-18T20:15:38.265Z,62.68
2023-07-18T20:18:05.149Z,61.54
2023-07-18T20:20:31.958Z,62.27
2023-07-18T20:22:58.609Z,62.48
2023-07-18T20:25:25.508Z,62.88
2023-07-18T20:27:52.218Z,62.69
2023-07-18T20:30:21.039Z,63.13
2023-07-18T20:32:48.334Z,62.88
2023-07-18T20:35:15.681Z,63.14
2023-07-18T20:37:42.542Z,64.26
2023-07-18T20:40:11.154Z,66.21
2023-07-18T20:42:38.404Z,66.45
2023-07-18T20:45:05.850Z,69.55
2023-07-18T20:47:32.495Z,67.01
2023-07-18T20:49:59.127Z,65.76
2023-07-18T20:52:25.822Z,68.42
2023-07-18T20:54:52.542Z,67.17
2023-07-18T20:57:19.083Z,67.89
2023-07-18T20:59:45.660Z,68.47
2023-07-18T21:02:12.370Z,67.78
2023-07-18T21:04:38.977Z,67.28
2023-07-18T21:07:05.825Z,69.59
2023-07-18T21:09:32.498Z,70.64
2023-07-18T21:11:59.179Z,69.98
2023-07-18T21:14:25.710Z,70.85
2023-07-18T21:16:52.253Z,71.83
2023-07-18T21:19:20.004Z,73.13
2023-07-18T21:21:46.589Z,74.57
2023-07-18T21:24:15.126Z,74.49
2023-07-18T21:26:42.009Z,74.53
2023-07-18T21:29:08.594Z,77.03
2023-07-18T21:31:35.137Z,75.26
2023-07-18T21:34:01.989Z,73.92
2023-07-18T21:36:28.590Z,75.74
2023-07-18T21:38:55.098Z,76.35
2023-07-18T21:41:23.002Z,75.82
2023-07-18T21:43:49.635Z,78.23
2023-07-18T21:46:16.390Z,78.84
2023-07-18T21:48:43.127Z,80.42
2023-07-18T21:51:09.698Z,81.78
2023-07-18T21:53:36.319Z,81.32
2023-07-18T21:56:03.843Z,83.57
2023-07-18T21:58:30.511Z,82.01
2023-07-18T22:00:57.066Z,81.99
2023-07-18T22:03:23.753Z,83.70
2023-07-18T22:05:50.298Z,84.38
2023-07-18T22:08:16.868Z,86.78
2023-07-18T22:10:43.556Z,86.59
2023-07-18T22:13:10.262Z,86.13
2023-07-18T22:15:36.822Z,84.20
2023-07-18T22:18:15.866Z,86.45
2023-07-18T22:20:50.341Z,86.11
2023-07-18T22:23:16.826Z,84.92
2023-07-18T22:25:43.333Z,84.63
2023-07-18T22:28:10.741Z,86.55
2023-07-18T22:30:37.263Z,87.37
2023-07-18T22:33:04.150Z,85.33
2023-07-18T22:35:30.774Z,86.74
2023-07-18T22:37:57.953Z,85.09
2023-07-18T22:40:24.493Z,88.44
2023-07-18T22:42:50.995Z,91.53
2023-07-18T22:45:17.514Z,87.49
2023-07-18T22:47:44.068Z,86.35
2023-07-18T22:50:11.286Z,88.44
2023-07-18T22:52:37.780Z,91.46
2023-07-18T22:55:04.801Z,90.84
2023-07-18T22:57:31.332Z,91.59
2023-07-18T22:59:58.002Z,92.65
2023-07-18T23:02:24.764Z,92.04
2023-07-18T23:04:51.588Z,94.72
2023-07-18T23:07:18.165Z,96.64
2023-07-18T23:09:44.700Z,94.44
2023-07-18T23:12:12.471Z,95.74
2023-07-18T23:14:39.171Z,92.09
2023-07-18T23:17:05.999Z,95.05
2023-07-18T23:19:32.693Z,94.05
2023-07-18T23:21:59.297Z,94.96
2023-07-18T23:24:25.982Z,96.79
2023-07-18T23:26:52.601Z,100.00
2023-07-18T23:29:19.086Z,99.42
2023-07-18T23:31:45.600Z,98.86
2023-07-18T23:34:12.143Z,98.39
2023-07-18T23:36:38.618Z,97.68
2023-07-18T23:39:06.586Z,92.45
2023-07-18T23:41:33.115Z,98.06
2023-07-18T23:43:59.584Z,100.00
2023-07-18T23:46:26.224Z,99.29
2023-07-18T23:48:52.930Z,100.00
2023-07-18T23:51:19.954Z,100.00
2023-07-18T23:53:46.851Z,99.99
2023-07-18T23:56:13.418Z,98.14
2023-07-18T23:58:39.949Z,97.72
